createdAt,value
2023-02-01T00:00:41.718Z,1000.00
2023-02-01T00:01:41.721Z,1000.00
2023-02-01T00:02:41.763Z,1000.00
2023-02-01T00:03:41.732Z,1000.00
2023-02-01T00:04:41.672Z,978.44
2023-02-01T00:05:41.706Z,574.63
2023-02-01T00:06:41.751Z,557.95
2023-02-01T00:07:41.740Z,529.71
2023-02-01T00:08:41.797Z,761.16
2023-02-01T00:09:41.700Z,718.28
2023-02-01T00:10:41.762Z,729.09
2023-02-01T00:11:42.004Z,852.15
2023-02-01T00:12:42.183Z,943.64
2023-02-01T00:13:42.540Z,1000.00
2023-02-01T00:14:42.631Z,908.28
2023-02-01T00:15:42.801Z,710.65
2023-02-01T00:16:43.020Z,695.36
2023-02-01T00:17:43.242Z,986.21
2023-02-01T00:18:43.404Z,688.66
2023-02-01T00:20:43.639Z,279.27
2023-02-01T00:21:43.609Z,205.90
2023-02-01T00:22:43.566Z,167.93
2023-02-01T00:23:43.576Z,227.07
2023-02-01T00:24:43.768Z,333.50
2023-02-01T00:25:44.020Z,335.09
2023-02-01T00:26:44.276Z,247.05
2023-02-01T00:27:44.466Z,186.76
2023-02-01T00:28:44.684Z,196.14
2023-02-01T01:01:51.713Z,76.70
2023-02-01T01:02:51.914Z,75.71
2023-02-01T01:03:52.049Z,90.24
2023-02-01T01:04:52.320Z,90.18
2023-02-01T01:05:52.561Z,84.39
2023-02-01T01:06:52.798Z,88.76
2023-02-01T01:07:53.046Z,81.59
2023-02-01T01:08:53.239Z,78.63
2023-02-01T01:09:53.454Z,61.78
2023-02-01T01:46:01.521Z,52.30
2023-02-01T01:47:01.657Z,46.05
2023-02-01T01:48:01.940Z,43.70
2023-02-01T01:49:02.089Z,48.40
2023-02-01T02:08:06.290Z,218.68
2023-02-01T02:09:07.185Z,158.12
2023-02-01T02:10:06.486Z,139.75
2023-02-01T02:11:06.536Z,134.99
2023-02-01T02:12:06.597Z,132.17
2023-02-01T02:13:06.598Z,128.74
2023-02-01T02:14:06.603Z,115.53
2023-02-01T02:15:06.595Z,96.49
2023-02-01T02:16:06.589Z,90.38
2023-02-01T02:18:06.573Z,63.63
2023-02-01T02:19:06.566Z,60.64
2023-02-01T02:20:06.576Z,69.46
2023-02-01T02:21:06.568Z,82.65
2023-02-01T02:22:06.587Z,114.14
2023-02-01T02:23:06.703Z,165.88
2023-02-01T02:24:06.850Z,140.57
2023-02-01T02:25:07.084Z,139.03
2023-02-01T02:26:07.416Z,144.58
2023-02-01T02:27:07.615Z,135.09
2023-02-01T02:28:07.824Z,124.43
2023-02-01T02:29:07.991Z,134.08
2023-02-01T02:30:08.170Z,141.75
2023-02-01T02:31:08.425Z,85.01
2023-02-01T02:32:08.595Z,82.55
2023-02-01T02:33:08.855Z,59.16
2023-02-01T02:34:08.998Z,38.01
2023-02-01T02:35:09.271Z,46.67
2023-02-01T02:36:09.515Z,52.01
2023-02-01T02:37:09.749Z,41.32
2023-02-01T02:38:09.901Z,58.38
2023-02-01T02:39:10.090Z,82.45
2023-02-01T02:40:10.313Z,101.26
2023-02-01T02:41:10.561Z,95.57
2023-02-01T02:42:10.712Z,71.70
2023-02-01T02:43:10.985Z,69.56
2023-02-01T02:44:11.134Z,76.71
2023-02-01T02:45:11.389Z,76.04
2023-02-01T02:52:12.767Z,93.31
2023-02-01T02:53:13.042Z,81.04
2023-02-01T02:54:13.233Z,76.32
2023-02-01T02:55:13.421Z,77.79
2023-02-01T02:56:13.677Z,94.35
2023-02-01T02:57:13.927Z,106.95
2023-02-01T02:58:14.089Z,117.89
2023-02-01T02:59:14.376Z,135.49
2023-02-01T03:00:14.605Z,126.81
2023-02-01T03:02:15.083Z,85.35
2023-02-01T03:03:15.288Z,113.14
2023-02-01T03:04:15.503Z,108.95
2023-02-01T03:05:16.546Z,101.28
2023-02-01T03:22:18.526Z,204.28
2023-02-01T03:39:22.436Z,328.35
2023-02-01T03:40:22.972Z,285.37
2023-02-01T03:41:22.629Z,309.81
2023-02-01T03:42:22.619Z,334.62
2023-02-01T03:43:22.648Z,326.60
2023-02-01T03:44:22.638Z,307.45
2023-02-01T03:45:22.646Z,290.20
2023-02-01T03:46:22.626Z,274.90
2023-02-01T03:47:22.620Z,250.36
2023-02-01T03:48:22.634Z,301.87
2023-02-01T03:49:22.651Z,303.06
2023-02-01T03:50:23.078Z,344.60
2023-02-01T03:51:22.679Z,354.85
2023-02-01T03:52:22.677Z,339.46
2023-02-01T03:53:22.683Z,379.79
2023-02-01T03:54:22.692Z,406.29
2023-02-01T03:55:22.653Z,410.79
2023-02-01T03:56:22.663Z,477.42
2023-02-01T03:57:22.680Z,467.80
2023-02-01T03:58:22.670Z,347.77
2023-02-01T03:59:22.656Z,314.02
2023-02-01T04:00:22.995Z,322.77
2023-02-01T04:01:22.676Z,390.47
2023-02-01T04:02:22.669Z,254.07
2023-02-01T04:03:22.642Z,187.79
2023-02-01T04:04:22.674Z,185.42
2023-02-01T04:05:22.678Z,216.08
2023-02-01T04:06:22.673Z,177.03
2023-02-01T04:07:22.671Z,178.66
2023-02-01T04:08:22.703Z,168.57
2023-02-01T04:09:22.777Z,159.81
2023-02-01T04:10:23.059Z,162.95
2023-02-01T04:11:22.884Z,185.82
2023-02-01T04:12:22.945Z,206.88
2023-02-01T04:13:22.984Z,230.94
2023-02-01T04:14:23.030Z,243.10
2023-02-01T04:15:23.011Z,290.35
2023-02-01T04:16:23.187Z,363.46
2023-02-01T04:17:23.022Z,390.96
2023-02-01T04:19:23.056Z,563.75
2023-02-01T04:20:23.308Z,651.84
2023-02-01T04:21:23.089Z,618.16
2023-02-01T04:22:23.040Z,557.12
2023-02-01T04:46:23.347Z,324.56
2023-02-01T04:47:23.260Z,316.57
2023-02-01T04:48:24.964Z,308.36
2023-02-01T04:49:23.279Z,306.34
2023-02-01T04:50:23.538Z,303.75
2023-02-01T04:51:23.314Z,281.05
2023-02-01T04:52:23.341Z,262.23
2023-02-01T04:53:23.385Z,279.28
2023-02-01T04:54:23.375Z,282.22
2023-02-01T04:55:23.407Z,281.04
2023-02-01T04:56:23.381Z,371.24
2023-02-01T04:57:23.386Z,416.35
2023-02-01T04:58:23.404Z,476.13
2023-02-01T04:59:23.414Z,414.90
2023-02-01T05:00:23.734Z,409.65
2023-02-01T05:01:23.466Z,423.77
2023-02-01T05:02:23.430Z,361.28
2023-02-01T05:03:23.458Z,313.61
2023-02-01T05:04:23.519Z,224.22
2023-02-01T05:05:23.465Z,175.62
2023-02-01T05:06:23.474Z,159.09
2023-02-01T05:07:23.472Z,199.96
2023-02-01T05:08:23.472Z,162.34
2023-02-01T05:09:23.514Z,153.13
2023-02-01T05:10:24.115Z,148.46
2023-02-01T05:11:23.765Z,145.20
2023-02-01T05:12:23.797Z,158.68
2023-02-01T05:13:23.851Z,191.95
2023-02-01T05:14:23.864Z,178.63
2023-02-01T05:15:23.851Z,181.00
2023-02-01T05:16:23.888Z,338.63
2023-02-01T05:59:24.530Z,589.43
2023-02-01T06:00:24.901Z,906.49
2023-02-01T06:01:24.607Z,594.08
2023-02-01T06:02:24.633Z,479.88
2023-02-01T06:03:24.667Z,666.64
2023-02-01T06:04:24.775Z,691.78
2023-02-01T06:05:25.050Z,811.17
2023-02-01T06:06:25.211Z,778.21
2023-02-01T06:07:25.412Z,519.07
2023-02-01T06:08:25.625Z,520.30
2023-02-01T06:09:25.840Z,540.43
2023-02-01T06:10:26.197Z,591.33
2023-02-01T06:11:33.057Z,657.29
2023-02-01T06:12:27.296Z,538.89
2023-02-01T06:13:26.275Z,374.08
2023-02-01T06:14:26.244Z,306.25
2023-02-01T06:15:26.222Z,424.74
2023-02-01T06:16:26.289Z,784.81
2023-02-01T06:17:26.191Z,620.19
2023-02-01T06:18:26.163Z,509.73
2023-02-01T06:19:26.172Z,459.50
2023-02-01T06:20:26.188Z,597.80
2023-02-01T06:21:26.308Z,956.99
2023-02-01T06:22:26.161Z,983.11
2023-02-01T06:23:26.160Z,682.69
2023-02-01T06:24:26.147Z,648.75
2023-02-01T06:25:26.134Z,841.00
2023-02-01T06:26:26.187Z,1000.00
2023-02-01T06:27:26.161Z,1000.00
2023-02-01T06:28:26.651Z,1000.00
2023-02-01T06:29:26.243Z,1000.00
2023-02-01T06:30:26.297Z,1000.00
2023-02-01T06:31:26.468Z,1000.00
2023-02-01T06:32:26.398Z,1000.00
2023-02-01T06:33:26.438Z,1000.00
2023-02-01T06:34:26.467Z,1000.00
2023-02-01T06:35:26.485Z,1000.00
2023-02-01T06:36:26.565Z,1000.00
2023-02-01T06:37:26.767Z,1000.00
2023-02-01T06:38:26.981Z,1000.00
2023-02-01T06:40:27.208Z,1000.00
2023-02-01T06:41:29.317Z,1000.00
2023-02-01T07:12:34.471Z,1000.00
2023-02-01T07:13:33.749Z,1000.00
2023-02-01T07:14:33.747Z,1000.00
2023-02-01T07:15:33.756Z,1000.00
2023-02-01T07:16:33.841Z,1000.00
2023-02-01T07:17:33.784Z,1000.00
2023-02-01T07:18:34.005Z,1000.00
2023-02-01T07:19:34.198Z,1000.00
2023-02-01T07:20:34.439Z,1000.00
2023-02-01T07:21:34.642Z,1000.00
2023-02-01T07:22:34.880Z,1000.00
2023-02-01T07:23:35.074Z,1000.00
2023-02-01T07:24:35.287Z,1000.00
2023-02-01T07:25:36.471Z,1000.00
2023-02-01T07:26:35.540Z,1000.00
2023-02-01T07:27:37.126Z,1000.00
2023-02-01T07:28:37.469Z,1000.00
2023-02-01T07:29:35.503Z,1000.00
2023-02-01T07:30:35.481Z,1000.00
2023-02-01T07:31:35.447Z,1000.00
2023-02-01T07:32:35.515Z,1000.00
2023-02-01T07:33:35.424Z,1000.00
2023-02-01T07:34:35.394Z,1000.00
2023-02-01T07:35:35.375Z,1000.00
2023-02-01T07:36:35.510Z,1000.00
2023-02-01T07:37:35.357Z,1000.00
2023-02-01T07:38:35.323Z,1000.00
2023-02-01T07:39:35.303Z,1000.00
2023-02-01T07:40:35.313Z,1000.00
2023-02-01T07:41:35.273Z,1000.00
2023-02-01T07:42:35.468Z,1000.00
2023-02-01T07:43:35.647Z,1000.00
2023-02-01T07:44:35.868Z,1000.00
2023-02-01T07:45:37.128Z,1000.00
2023-02-01T07:46:36.056Z,1000.00
2023-02-01T07:47:36.061Z,1000.00
2023-02-01T07:48:36.078Z,1000.00
2023-02-01T07:49:36.124Z,1000.00
2023-02-01T07:50:36.122Z,1000.00
2023-02-01T07:51:36.311Z,1000.00
2023-02-01T07:52:36.533Z,1000.00
2023-02-01T07:53:36.771Z,1000.00
2023-02-01T07:54:36.964Z,1000.00
2023-02-01T07:55:37.217Z,1000.00
2023-02-01T07:56:37.416Z,1000.00
2023-02-01T07:57:37.686Z,1000.00
2023-02-01T07:58:37.874Z,1000.00
2023-02-01T07:59:38.110Z,1000.00
2023-02-01T08:00:38.409Z,1000.00
2023-02-01T08:01:38.592Z,1000.00
2023-02-01T08:02:38.837Z,1000.00
2023-02-01T08:03:39.054Z,1000.00
2023-02-01T08:04:39.254Z,1000.00
2023-02-01T08:05:39.456Z,1000.00
2023-02-01T08:06:39.703Z,1000.00
2023-02-01T08:07:39.927Z,1000.00
2023-02-01T08:08:40.198Z,1000.00
2023-02-01T08:09:40.369Z,1000.00
2023-02-01T08:10:40.667Z,1000.00
2023-02-01T08:23:43.733Z,1000.00
2023-02-01T08:24:43.970Z,1000.00
2023-02-01T08:25:44.203Z,1000.00
2023-02-01T08:26:44.481Z,1000.00
2023-02-01T08:27:44.654Z,1000.00
2023-02-01T08:28:44.928Z,1000.00
2023-02-01T08:29:45.179Z,1000.00
2023-02-01T08:30:45.473Z,1000.00
2023-02-01T08:31:45.603Z,1000.00
2023-02-01T08:43:48.437Z,375.93
2023-02-01T08:44:48.675Z,260.90
2023-02-01T08:45:49.021Z,365.23
2023-02-01T08:46:49.058Z,614.28
2023-02-01T08:47:49.314Z,1000.00
2023-02-01T08:48:49.556Z,1000.00
2023-02-01T08:49:49.809Z,1000.00
2023-02-01T08:50:49.928Z,1000.00
2023-02-01T08:51:50.167Z,1000.00
2023-02-01T08:52:50.416Z,1000.00
2023-02-01T08:53:50.639Z,1000.00
2023-02-01T08:54:50.813Z,1000.00
2023-02-01T08:55:51.004Z,315.92
2023-02-01T08:56:51.179Z,335.05
2023-02-01T08:57:51.393Z,442.55
2023-02-01T08:58:51.691Z,647.88
2023-02-01T08:59:51.822Z,313.11
2023-02-01T09:00:52.090Z,140.09
2023-02-01T09:01:52.207Z,115.50
2023-02-01T09:02:52.484Z,138.16
2023-02-01T09:03:52.868Z,202.71
2023-02-01T09:04:52.860Z,253.98
2023-02-01T09:05:54.400Z,331.51
2023-02-01T09:06:53.048Z,467.65
2023-02-01T09:07:53.028Z,778.21
2023-02-01T09:08:52.980Z,1000.00
2023-02-01T09:09:52.993Z,1000.00
2023-02-01T09:10:53.177Z,1000.00
2023-02-01T09:11:53.358Z,1000.00
2023-02-01T09:12:53.611Z,1000.00
2023-02-01T09:13:53.840Z,1000.00
2023-02-01T09:14:54.079Z,1000.00
2023-02-01T09:15:54.312Z,1000.00
2023-02-01T09:16:54.507Z,773.45
2023-02-01T09:17:54.728Z,1000.00
2023-02-01T09:19:14.567Z,924.24
2023-02-01T09:19:55.880Z,935.83
2023-02-01T09:20:54.805Z,972.39
2023-02-01T09:21:54.759Z,648.88
2023-02-01T09:22:54.696Z,746.36
2023-02-01T09:23:54.822Z,1000.00
2023-02-01T09:24:55.326Z,1000.00
2023-02-01T09:25:55.583Z,1000.00
2023-02-01T09:26:54.663Z,1000.00
2023-02-01T09:27:54.575Z,1000.00
2023-02-01T09:28:56.088Z,1000.00
2023-02-01T09:29:54.484Z,1000.00
2023-02-01T09:30:54.462Z,1000.00
2023-02-01T09:32:03.423Z,1000.00
2023-02-01T09:32:55.293Z,1000.00
2023-02-01T09:33:54.257Z,1000.00
2023-02-01T09:34:54.212Z,1000.00
2023-02-01T09:35:54.140Z,1000.00
2023-02-01T09:36:54.063Z,896.69
2023-02-01T09:37:54.010Z,1000.00
2023-02-01T09:38:54.146Z,1000.00
2023-02-01T09:39:54.372Z,1000.00
2023-02-01T09:40:54.647Z,1000.00
2023-02-01T09:41:54.821Z,1000.00
2023-02-01T09:42:55.036Z,1000.00
2023-02-01T09:43:55.248Z,1000.00
2023-02-01T09:44:55.442Z,1000.00
2023-02-01T09:45:55.701Z,1000.00
2023-02-01T09:46:55.871Z,1000.00
2023-02-01T09:47:56.147Z,1000.00
2023-02-01T09:48:56.350Z,1000.00
2023-02-01T09:49:56.516Z,1000.00
2023-02-01T09:50:56.729Z,851.09
2023-02-01T09:51:56.952Z,986.40
2023-02-01T09:52:57.144Z,1000.00
2023-02-01T09:53:57.351Z,1000.00
2023-02-01T09:54:57.627Z,420.18
2023-02-01T09:55:57.756Z,221.94
2023-02-01T09:56:58.017Z,188.65
2023-02-01T09:57:58.212Z,120.10
2023-02-01T09:58:58.404Z,134.55
2023-02-01T09:59:59.369Z,106.02
2023-02-01T10:00:58.604Z,69.00
2023-02-01T10:01:58.557Z,59.17
2023-02-01T10:02:58.544Z,126.30
2023-02-01T10:03:58.559Z,145.83
2023-02-01T10:04:58.596Z,169.10
2023-02-01T10:05:58.791Z,166.53
2023-02-01T10:06:58.976Z,78.25
2023-02-01T10:07:59.199Z,73.50
2023-02-01T10:08:59.343Z,75.18
2023-02-01T10:09:59.536Z,80.66
2023-02-01T10:11:00.066Z,128.08
2023-02-01T10:11:59.952Z,205.04
2023-02-01T10:13:00.120Z,175.04
2023-02-01T10:14:00.323Z,100.13
2023-02-01T10:15:00.514Z,75.60
2023-02-01T10:16:00.826Z,84.21
2023-02-01T10:31:03.819Z,90.64
2023-02-01T10:32:03.919Z,112.85
2023-02-01T10:33:04.055Z,111.01
2023-02-01T10:34:04.991Z,99.85
2023-02-01T10:35:04.132Z,78.17
2023-02-01T10:36:04.045Z,92.40
2023-02-01T10:37:03.984Z,99.82
2023-02-01T10:38:04.008Z,69.90
2023-02-01T10:39:03.983Z,95.75
2023-02-01T10:40:04.012Z,118.40
2023-02-01T10:41:03.985Z,105.25
2023-02-01T10:42:03.951Z,132.46
2023-02-01T10:43:03.960Z,127.35
2023-02-01T10:44:03.984Z,95.59
2023-02-01T10:45:03.965Z,103.23
2023-02-01T10:46:04.027Z,147.29
2023-02-01T10:47:03.959Z,112.46
2023-02-01T10:48:03.955Z,110.02
2023-02-01T10:49:03.950Z,148.33
2023-02-01T10:50:04.080Z,109.83
2023-02-01T10:51:04.295Z,134.41
2023-02-01T10:52:04.509Z,200.11
2023-02-01T10:53:04.636Z,205.09
2023-02-01T10:54:04.772Z,179.06
2023-02-01T10:55:04.967Z,180.32
2023-02-01T10:56:05.084Z,176.57
2023-02-01T10:57:05.312Z,275.52
2023-02-01T10:58:05.399Z,462.23
2023-02-01T10:59:05.643Z,533.81
2023-02-01T11:00:06.512Z,348.22
2023-02-01T11:01:05.844Z,414.45
2023-02-01T11:02:05.827Z,424.05
2023-02-01T11:03:05.843Z,488.03
2023-02-01T11:04:05.764Z,473.86
2023-02-01T11:05:05.671Z,386.64
2023-02-01T11:06:05.654Z,255.24
2023-02-01T11:07:05.603Z,372.79
2023-02-01T11:08:05.617Z,395.34
2023-02-01T11:09:05.581Z,271.36
2023-02-01T11:10:05.634Z,210.13
2023-02-01T11:11:05.765Z,165.75
2023-02-01T11:12:05.943Z,212.43
2023-02-01T11:13:06.179Z,249.90
2023-02-01T11:54:13.817Z,28.44
2023-02-01T11:55:13.953Z,34.37
2023-02-01T11:56:14.081Z,38.63
2023-02-01T11:57:14.248Z,70.04
2023-02-01T11:58:14.436Z,37.48
2023-02-01T11:59:14.595Z,31.31
2023-02-01T12:00:14.925Z,21.68
2023-02-01T12:01:15.032Z,18.14
2023-02-01T12:02:15.194Z,22.00
2023-02-01T13:01:23.701Z,7.19
2023-02-01T13:02:23.886Z,7.62
2023-02-01T13:03:24.040Z,7.95
2023-02-01T13:04:24.229Z,6.21
2023-02-01T13:05:24.377Z,5.20
2023-02-01T13:06:24.544Z,4.46
2023-02-01T13:07:24.717Z,3.34
2023-02-01T13:08:24.899Z,4.69
2023-02-01T13:09:25.083Z,4.57
2023-02-01T13:10:25.566Z,3.40
2023-02-01T13:11:25.247Z,2.93
2023-02-01T13:12:25.258Z,2.29
2023-02-01T13:13:25.252Z,1.91
2023-02-01T13:14:25.156Z,1.53
2023-02-01T13:15:25.119Z,1.86
2023-02-01T13:16:25.144Z,1.89
2023-02-01T13:17:24.982Z,2.37
2023-02-01T13:18:24.915Z,2.77
2023-02-01T13:19:24.841Z,3.12
2023-02-01T13:20:25.324Z,4.19
2023-02-01T13:21:24.713Z,3.82
2023-02-01T13:22:24.685Z,3.28
2023-02-01T13:23:24.781Z,1.92
2023-02-01T13:24:24.989Z,1.61
2023-02-01T13:25:25.517Z,1.97
2023-02-01T13:26:25.122Z,1.88
2023-02-01T13:27:25.026Z,1.73
2023-02-01T13:28:24.970Z,1.89
2023-02-01T13:29:24.907Z,1.89
2023-02-01T13:30:24.915Z,1.67
2023-02-01T13:31:24.939Z,1.97
2023-02-01T13:33:51.112Z,1.51
2023-02-01T13:33:54.127Z,1.51
2023-02-01T13:34:25.598Z,1.52
2023-02-01T13:35:24.818Z,1.57
2023-02-01T13:36:24.390Z,1.61
2023-02-01T13:37:24.307Z,1.79
2023-02-01T13:38:24.386Z,2.74
2023-02-01T13:39:24.583Z,2.68
2023-02-01T13:40:24.716Z,1.73
2023-02-01T13:41:24.966Z,2.96
2023-02-01T13:42:24.904Z,2.04
2023-02-01T13:43:24.834Z,1.60
2023-02-01T13:44:24.766Z,1.54
2023-02-01T13:45:25.113Z,1.98
2023-02-01T13:46:24.631Z,2.28
2023-02-01T13:47:24.560Z,1.61
2023-02-01T13:48:24.525Z,1.82
2023-02-01T13:49:24.448Z,2.23
2023-02-01T13:50:24.347Z,1.94
2023-02-01T13:51:24.274Z,2.88
2023-02-01T13:52:24.205Z,3.20
2023-02-01T13:53:24.125Z,3.89
2023-02-01T13:54:24.075Z,3.27
2023-02-01T13:55:24.346Z,2.86
2023-02-01T13:56:23.911Z,2.82
2023-02-01T13:57:23.847Z,4.37
2023-02-01T13:58:23.768Z,8.91
2023-02-01T13:59:23.672Z,6.23
2023-02-01T14:19:23.601Z,7.33
2023-02-01T14:20:24.122Z,6.39
2023-02-01T14:21:24.326Z,6.93
2023-02-01T14:22:23.677Z,6.50
2023-02-01T14:23:23.622Z,9.11
2023-02-01T14:25:24.149Z,6.38
2023-02-01T14:26:23.783Z,6.47
2023-02-01T14:27:23.716Z,8.19
2023-02-01T14:28:23.707Z,7.84
2023-02-01T14:29:23.631Z,6.64
2023-02-01T14:50:23.760Z,17.23
2023-02-01T14:51:24.033Z,13.70
2023-02-01T14:52:24.217Z,11.65
2023-02-01T14:53:24.513Z,12.36
2023-02-01T14:54:24.664Z,10.59
2023-02-01T14:55:25.251Z,10.22
2023-02-01T14:56:24.827Z,14.50
2023-02-01T14:57:24.753Z,18.30
2023-02-01T14:58:24.732Z,10.55
2023-02-01T14:59:24.673Z,8.54
2023-02-01T15:00:24.609Z,7.78
2023-02-01T15:01:24.600Z,8.18
2023-02-01T15:02:24.584Z,8.34
2023-02-01T15:03:24.448Z,9.67
2023-02-01T15:04:24.421Z,13.83
2023-02-01T15:05:24.698Z,13.52
2023-02-01T15:06:24.263Z,9.87
2023-02-01T15:07:24.182Z,9.31
2023-02-01T15:08:24.161Z,6.17
2023-02-01T15:09:24.173Z,8.18
2023-02-01T15:10:24.126Z,13.10
2023-02-01T15:11:24.101Z,13.38
2023-02-01T15:12:24.083Z,8.42
2023-02-01T15:13:24.076Z,8.21
2023-02-01T15:14:24.062Z,7.20
2023-02-01T15:15:24.332Z,6.59
2023-02-01T15:16:24.061Z,6.81
2023-02-01T15:17:23.984Z,7.45
2023-02-01T15:18:23.953Z,12.28
2023-02-01T15:19:23.921Z,12.96
2023-02-01T15:20:23.990Z,15.82
2023-02-01T15:21:28.774Z,22.90
2023-02-01T15:22:24.716Z,17.26
2023-02-01T15:23:23.626Z,16.02
2023-02-01T15:46:23.826Z,62.72
2023-02-01T15:47:23.967Z,69.26
2023-02-01T15:48:24.135Z,72.44
2023-02-01T15:49:24.323Z,63.55
2023-02-01T15:50:25.353Z,74.99
2023-02-01T15:51:24.514Z,100.20
2023-02-01T15:52:24.464Z,118.36
2023-02-01T15:53:24.426Z,148.76
2023-02-01T15:54:24.437Z,259.13
2023-02-01T15:55:24.704Z,266.65
2023-02-01T15:56:24.375Z,362.38
2023-02-01T15:57:24.343Z,397.63
2023-02-01T15:58:24.319Z,534.21
2023-02-01T15:59:24.282Z,440.44
2023-02-01T16:00:24.475Z,404.62
2023-02-01T16:01:24.725Z,361.86
2023-02-01T16:02:24.891Z,404.46
2023-02-01T16:03:25.110Z,470.60
2023-02-01T16:04:25.354Z,675.75
2023-02-01T16:05:25.873Z,367.72
2023-02-01T16:06:25.589Z,310.54
2023-02-01T16:07:25.587Z,495.78
2023-02-01T16:08:25.647Z,429.08
2023-02-01T16:09:25.597Z,366.30
2023-02-01T16:10:25.599Z,499.68
2023-02-01T16:11:25.814Z,433.92
2023-02-01T16:12:25.990Z,293.92
2023-02-01T16:13:26.234Z,236.93
2023-02-01T16:14:26.487Z,172.35
2023-02-01T16:15:26.785Z,219.85
2023-02-01T16:16:26.935Z,321.21
2023-02-01T16:48:33.756Z,164.80
2023-02-01T16:49:33.946Z,119.72
2023-02-01T16:50:34.200Z,147.15
2023-02-01T16:51:34.361Z,206.33
2023-02-01T16:52:34.623Z,173.62
2023-02-01T16:53:48.372Z,239.36
2023-02-01T16:54:35.757Z,173.90
2023-02-01T16:55:34.691Z,186.37
2023-02-01T16:56:34.692Z,189.38
2023-02-01T16:57:34.554Z,149.36
2023-02-01T16:58:34.575Z,89.97
2023-02-01T16:59:34.513Z,116.43
2023-02-01T17:00:34.467Z,94.04
2023-02-01T17:01:34.487Z,121.51
2023-02-01T17:02:34.620Z,142.73
2023-02-01T17:03:34.824Z,104.72
2023-02-01T17:04:35.214Z,97.33
2023-02-01T17:05:35.240Z,108.08
2023-02-01T17:06:35.435Z,116.09
2023-02-01T17:07:35.683Z,118.40
2023-02-01T17:08:35.911Z,147.39
2023-02-01T17:09:35.900Z,181.72
2023-02-01T17:10:35.893Z,310.07
2023-02-01T17:11:35.892Z,353.70
2023-02-01T17:12:35.817Z,273.59
2023-02-01T17:13:35.767Z,187.43
2023-02-01T17:14:37.386Z,145.49
2023-02-01T17:15:35.795Z,179.48
2023-02-01T17:16:35.690Z,225.92
2023-02-01T17:17:38.861Z,230.17
2023-02-01T17:18:35.653Z,177.24
2023-02-01T17:19:35.594Z,150.27
2023-02-01T17:20:36.385Z,155.54
2023-02-01T17:21:35.474Z,223.05
2023-02-01T17:22:35.428Z,192.52
2023-02-01T17:23:35.363Z,184.10
2023-02-01T17:24:47.555Z,188.77
2023-02-01T17:25:36.242Z,190.15
2023-02-01T17:26:36.839Z,202.21
2023-02-01T17:27:35.121Z,214.19
2023-02-01T17:28:35.072Z,261.98
2023-02-01T17:29:35.034Z,301.96
2023-02-01T17:30:35.001Z,439.73
2023-02-01T17:31:34.921Z,269.94
2023-02-01T17:32:34.844Z,211.30
2023-02-01T17:33:36.230Z,264.42
2023-02-01T17:34:34.667Z,253.74
2023-02-01T17:35:34.624Z,398.61
2023-02-01T17:36:34.555Z,380.21
2023-02-01T17:37:34.527Z,318.78
2023-02-01T17:38:34.458Z,340.90
2023-02-01T17:39:34.394Z,373.67
2023-02-01T17:40:34.323Z,287.47
2023-02-01T17:41:34.442Z,332.57
2023-02-01T17:42:34.289Z,274.40
2023-02-01T17:43:34.212Z,333.43
2023-02-01T17:44:34.202Z,535.00
2023-02-01T17:45:34.488Z,642.70
2023-02-01T17:46:34.610Z,491.61
2023-02-01T17:47:34.825Z,661.64
2023-02-01T17:48:35.044Z,1000.00
2023-02-01T17:49:35.246Z,850.04
2023-02-01T17:50:35.434Z,643.99
2023-02-01T17:51:35.624Z,643.21
2023-02-01T17:52:35.806Z,457.75
2023-02-01T17:53:36.005Z,232.54
2023-02-01T17:54:37.606Z,652.98
2023-02-01T17:55:36.189Z,774.64
2023-02-01T17:56:36.053Z,600.89
2023-02-01T17:57:36.009Z,1000.00
2023-02-01T17:58:35.959Z,631.22
2023-02-01T17:59:35.924Z,372.59
2023-02-01T18:00:38.043Z,179.18
2023-02-01T18:01:35.944Z,152.29
2023-02-01T18:02:35.890Z,167.74
2023-02-01T18:03:35.845Z,134.76
2023-02-01T18:04:35.796Z,217.58
2023-02-01T18:05:35.792Z,174.96
2023-02-01T18:06:37.667Z,224.44
2023-02-01T18:07:35.692Z,304.51
2023-02-01T18:08:35.624Z,419.55
2023-02-01T18:09:35.544Z,346.72
2023-02-01T18:10:35.488Z,415.20
2023-02-01T18:11:35.387Z,305.54
2023-02-01T18:12:37.176Z,275.33
2023-02-01T18:13:35.360Z,127.80
2023-02-01T19:16:43.712Z,127.65
2023-02-01T19:17:43.851Z,129.45
2023-02-01T19:18:44.058Z,184.85
2023-02-01T19:19:44.334Z,151.84
2023-02-01T19:20:44.508Z,137.00
2023-02-01T19:21:44.715Z,126.44
2023-02-01T19:22:44.956Z,111.65
2023-02-01T19:23:45.172Z,131.72
2023-02-01T19:24:45.459Z,157.44
2023-02-01T19:25:45.655Z,127.27
2023-02-01T19:26:45.835Z,139.75
2023-02-01T19:27:46.070Z,184.36
2023-02-01T19:28:46.236Z,248.66
2023-02-01T19:29:46.518Z,270.90
2023-02-01T19:30:46.824Z,283.64
2023-02-01T19:31:47.004Z,261.98
2023-02-01T19:32:47.178Z,277.37
2023-02-01T19:33:47.420Z,229.16
2023-02-01T19:34:47.695Z,317.15
2023-02-01T19:35:47.959Z,246.95
2023-02-01T19:36:48.133Z,290.66
2023-02-01T19:37:48.371Z,348.35
2023-02-01T19:38:48.640Z,320.82
2023-02-01T20:47:54.551Z,231.22
2023-02-01T20:48:54.782Z,223.55
2023-02-01T20:49:55.021Z,219.39
2023-02-01T20:50:55.215Z,255.80
2023-02-01T20:51:55.493Z,286.16
2023-02-01T20:52:55.669Z,209.37
2023-02-01T20:53:55.853Z,240.98
2023-02-01T20:54:56.150Z,291.12
2023-02-01T20:55:56.362Z,256.92
2023-02-01T20:56:56.589Z,191.99
2023-02-01T20:57:56.808Z,158.02
2023-02-01T20:58:57.054Z,165.37
2023-02-01T20:59:57.279Z,179.88
2023-02-01T21:00:57.514Z,173.52
2023-02-01T21:01:57.708Z,169.00
2023-02-01T21:02:57.889Z,237.23
2023-02-01T21:03:58.055Z,194.42
2023-02-01T21:04:58.265Z,149.24
2023-02-01T21:05:58.423Z,182.08
2023-02-01T21:06:58.602Z,183.42
2023-02-01T21:33:04.464Z,341.74
2023-02-01T21:34:04.676Z,346.46
2023-02-01T21:35:04.931Z,323.85
2023-02-01T21:36:05.248Z,398.47
2023-02-01T21:37:05.458Z,409.17
2023-02-01T21:38:05.627Z,408.89
2023-02-01T21:39:05.899Z,524.73
2023-02-01T21:40:06.106Z,434.37
2023-02-01T21:41:06.324Z,378.19
2023-02-01T21:42:06.547Z,384.47
2023-02-01T21:43:06.766Z,372.04
2023-02-01T21:44:07.004Z,322.75
2023-02-01T21:45:07.229Z,303.08
2023-02-01T21:46:07.546Z,398.21
2023-02-01T21:47:07.728Z,576.17
2023-02-01T21:48:07.703Z,794.49
2023-02-01T21:49:07.709Z,523.38
2023-02-01T21:50:07.687Z,401.59
2023-02-01T21:51:07.658Z,405.28
2023-02-01T21:52:07.644Z,514.01
2023-02-01T21:53:07.662Z,548.00
2023-02-01T21:54:07.651Z,473.40
2023-02-01T21:55:07.632Z,421.90
2023-02-01T21:56:07.638Z,547.15
2023-02-01T21:57:07.600Z,641.63
2023-02-01T21:58:07.566Z,746.10
2023-02-01T21:59:07.560Z,792.92
2023-02-01T22:00:07.740Z,864.03
2023-02-01T22:01:08.027Z,852.24
2023-02-01T22:02:08.284Z,652.82
2023-02-01T22:03:08.474Z,879.67
2023-02-01T22:04:08.695Z,1000.00
2023-02-01T22:05:08.925Z,897.13
2023-02-01T22:06:09.139Z,779.04
2023-02-01T22:07:09.344Z,648.67
2023-02-01T22:31:14.851Z,1000.00
2023-02-01T22:32:14.875Z,1000.00
2023-02-01T22:33:15.109Z,1000.00
2023-02-01T22:34:15.329Z,1000.00
2023-02-01T22:35:15.546Z,1000.00
2023-02-01T22:36:15.752Z,1000.00
2023-02-01T22:37:16.006Z,1000.00
2023-02-01T22:38:16.191Z,1000.00
2023-02-01T22:39:16.413Z,1000.00
2023-02-01T22:40:16.586Z,1000.00
2023-02-01T22:41:16.794Z,1000.00
2023-02-01T22:42:17.010Z,1000.00
2023-02-01T22:43:17.204Z,1000.00
2023-02-01T22:44:17.515Z,1000.00
2023-02-01T22:45:17.694Z,1000.00
2023-02-01T23:15:24.903Z,1000.00
2023-02-01T23:16:24.514Z,1000.00
